sensor_id;sensor_type;location;lat;lon;timestamp;pressure;altitude;pressure_sealevel;temperature;humidity
58239;BME280;44037;55.638;37.356;2023-04-01T00:02:03;97704.44;;;1.83;100.00
58239;BME280;44037;55.638;37.356;2023-04-01T00:04:30;97708.69;;;1.84;100.00
58239;BME280;44037;55.638;37.356;2023-04-01T00:06:57;97704.44;;;1.83;100.00
58239;BME280;44037;55.638;37.356;2023-04-01T00:09:25;97701.03;;;1.82;100.00
58239;BME280;44037;55.638;37.356;2023-04-01T00:11:52;97698.47;;;1.82;100.00
58239;BME280;44037;55.638;37.356;2023-04-01T00:14:19;97701.88;;;1.83;100.00
58239;BME280;44037;55.638;37.356;2023-04-01T00:16:47;97702.72;;;1.83;100.00
58239;BME280;44037;55.638;37.356;2023-04-01T00:19:14;97695.94;;;1.84;100.00
58239;BME280;44037;55.638;37.356;2023-04-01T00:21:41;97695.03;;;1.82;100.00
58239;BME280;44037;55.638;37.356;2023-04-01T00:24:09;97692.47;;;1.80;100.00
58239;BME280;44037;55.638;37.356;2023-04-01T00:26:36;97689.06;;;1.80;100.00
58239;BME280;44037;55.638;37.356;2023-04-01T00:29:03;97692.44;;;1.79;100.00
58239;BME280;44037;55.638;37.356;2023-04-01T00:31:31;97689.88;;;1.79;100.00
58239;BME280;44037;55.638;37.356;2023-04-01T00:33:59;97677.94;;;1.76;100.00
58239;BME280;44037;55.638;37.356;2023-04-01T00:36:26;97683.91;;;1.75;100.00
58239;BME280;44037;55.638;37.356;2023-04-01T00:38:53;97681.28;;;1.72;100.00
58239;BME280;44037;55.638;37.356;2023-04-01T00:41:21;97683.00;;;1.70;100.00
58239;BME280;44037;55.638;37.356;2023-04-01T00:43:49;97677.84;;;1.68;100.00
58239;BME280;44037;55.638;37.356;2023-04-01T00:46:17;97677.84;;;1.68;100.00
58239;BME280;44037;55.638;37.356;2023-04-01T00:48:48;97684.66;;;1.69;100.00
58239;BME280;44037;55.638;37.356;2023-04-01T00:51:19;97677.00;;;1.69;100.00
58239;BME280;44037;55.638;37.356;2023-04-01T00:53:50;97685.53;;;1.70;100.00
58239;BME280;44037;55.638;37.356;2023-04-01T00:56:21;97679.56;;;1.71;100.00
58239;BME280;44037;55.638;37.356;2023-04-01T00:58:51;97679.63;;;1.73;100.00
58239;BME280;44037;55.638;37.356;2023-04-01T01:01:22;97682.16;;;1.73;100.00
58239;BME280;44037;55.638;37.356;2023-04-01T01:03:50;97678.78;;;1.74;100.00
58239;BME280;44037;55.638;37.356;2023-04-01T01:06:27;97683.00;;;1.73;100.00
58239;BME280;44037;55.638;37.356;2023-04-01T01:09:12;97679.63;;;1.74;100.00
58239;BME280;44037;55.638;37.356;2023-04-01T01:11:47;97677.94;;;1.76;100.00
58239;BME280;44037;55.638;37.356;2023-04-01T01:14:25;97682.22;;;1.79;100.00
58239;BME280;44037;55.638;37.356;2023-04-01T01:17:02;97680.56;;;1.79;100.00
58239;BME280;44037;55.638;37.356;2023-04-01T01:19:48;97691.66;;;1.81;100.00
58239;BME280;44037;55.638;37.356;2023-04-01T01:22:43;97689.94;;;1.82;100.00
58239;BME280;44037;55.638;37.356;2023-04-01T01:25:25;97684.00;;;1.83;100.00
58239;BME280;44037;55.638;37.356;2023-04-01T01:28:06;97689.09;;;1.83;100.00
58239;BME280;44037;55.638;37.356;2023-04-01T01:30:47;97685.72;;;1.84;100.00
58239;BME280;44037;55.638;37.356;2023-04-01T01:33:30;97682.28;;;1.82;100.00
58239;BME280;44037;55.638;37.356;2023-04-01T01:36:04;97686.53;;;1.83;100.00
58239;BME280;44037;55.638;37.356;2023-04-01T01:38:35;97692.50;;;1.83;100.00
58239;BME280;44037;55.638;37.356;2023-04-01T01:41:04;97690.81;;;1.86;100.00
58239;BME280;44037;55.638;37.356;2023-04-01T01:43:34;97691.69;;;1.86;100.00
58239;BME280;44037;55.638;37.356;2023-04-01T01:46:05;97689.16;;;1.88;100.00
58239;BME280;44037;55.638;37.356;2023-04-01T01:48:35;97694.25;;;1.88;100.00
58239;BME280;44037;55.638;37.356;2023-04-01T01:51:05;97690.88;;;1.87;100.00
58239;BME280;44037;55.638;37.356;2023-04-01T01:53:32;97697.69;;;1.88;100.00
58239;BME280;44037;55.638;37.356;2023-04-01T01:55:59;97693.44;;;1.89;100.00
58239;BME280;44037;55.638;37.356;2023-04-01T01:58:30;97693.44;;;1.90;100.00
58239;BME280;44037;55.638;37.356;2023-04-01T02:01:02;97687.50;;;1.91;100.00
58239;BME280;44037;55.638;37.356;2023-04-01T02:03:33;97689.22;;;1.92;100.00
58239;BME280;44037;55.638;37.356;2023-04-01T02:06:06;97690.09;;;1.93;100.00
58239;BME280;44037;55.638;37.356;2023-04-01T02:08:36;97685.81;;;1.93;100.00
58239;BME280;44037;55.638;37.356;2023-04-01T02:11:06;97688.41;;;1.95;100.00
58239;BME280;44037;55.638;37.356;2023-04-01T02:13:39;97685.84;;;1.95;100.00
58239;BME280;44037;55.638;37.356;2023-04-01T02:16:13;97690.97;;;1.96;100.00
58239;BME280;44037;55.638;37.356;2023-04-01T02:18:43;97691.81;;;1.97;100.00
58239;BME280;44037;55.638;37.356;2023-04-01T02:21:14;97699.53;;;1.98;100.00
58239;BME280;44037;55.638;37.356;2023-04-01T02:23:42;97702.06;;;1.98;100.00
58239;BME280;44037;55.638;37.356;2023-04-01T02:26:10;97701.25;;;1.99;100.00
58239;BME280;44037;55.638;37.356;2023-04-01T02:28:38;97701.25;;;1.99;100.00
58239;BME280;44037;55.638;37.356;2023-04-01T02:31:08;97700.38;;;1.99;100.00
58239;BME280;44037;55.638;37.356;2023-04-01T02:33:38;97701.25;;;1.99;100.00
58239;BME280;44037;55.638;37.356;2023-04-01T02:36:06;97707.19;;;2.00;100.00
58239;BME280;44037;55.638;37.356;2023-04-01T02:38:38;97711.47;;;1.99;100.00
58239;BME280;44037;55.638;37.356;2023-04-01T02:41:06;97706.31;;;1.98;100.00
58239;BME280;44037;55.638;37.356;2023-04-01T02:43:33;97719.91;;;1.97;100.00
58239;BME280;44037;55.638;37.356;2023-04-01T02:46:00;97708.81;;;1.93;100.00
58239;BME280;44037;55.638;37.356;2023-04-01T02:48:28;97716.47;;;1.93;100.00
58239;BME280;44037;55.638;37.356;2023-04-01T02:50:55;97714.75;;;1.92;100.00
58239;BME280;44037;55.638;37.356;2023-04-01T02:53:23;97722.41;;;1.91;100.00
58239;BME280;44037;55.638;37.356;2023-04-01T02:55:51;97719.88;;;1.92;100.00
58239;BME280;44037;55.638;37.356;2023-04-01T02:58:19;97719.88;;;1.92;100.00
58239;BME280;44037;55.638;37.356;2023-04-01T03:00:46;97721.56;;;1.93;100.00
58239;BME280;44037;55.638;37.356;2023-04-01T03:03:13;97721.56;;;1.93;100.00
58239;BME280;44037;55.638;37.356;2023-04-01T03:05:40;97721.63;;;1.95;100.00
58239;BME280;44037;55.638;37.356;2023-04-01T03:08:07;97718.19;;;1.94;100.00
58239;BME280;44037;55.638;37.356;2023-04-01T03:10:34;97725.84;;;1.96;100.00
58239;BME280;44037;55.638;37.356;2023-04-01T03:13:03;97723.28;;;1.94;100.00
58239;BME280;44037;55.638;37.356;2023-04-01T03:15:30;97725.03;;;1.95;100.00
58239;BME280;44037;55.638;37.356;2023-04-01T03:17:57;97726.72;;;1.96;100.00
58239;BME280;44037;55.638;37.356;2023-04-01T03:20:24;97724.22;;;1.99;100.00
58239;BME280;44037;55.638;37.356;2023-04-01T03:22:51;97727.63;;;2.00;100.00
58239;BME280;44037;55.638;37.356;2023-04-01T03:25:19;97725.94;;;2.02;100.00
58239;BME280;44037;55.638;37.356;2023-04-01T03:27:46;97727.66;;;2.03;100.00
58239;BME280;44037;55.638;37.356;2023-04-01T03:30:14;97724.28;;;2.04;100.00
58239;BME280;44037;55.638;37.356;2023-04-01T03:32:41;97726.84;;;2.06;100.00
58239;BME280;44037;55.638;37.356;2023-04-01T03:35:08;97737.94;;;2.08;100.00
58239;BME280;44037;55.638;37.356;2023-04-01T03:37:37;97738.00;;;2.11;100.00
58239;BME280;44037;55.638;37.356;2023-04-01T03:40:05;97738.84;;;2.11;100.00
58239;BME280;44037;55.638;37.356;2023-04-01T03:42:32;97743.97;;;2.13;100.00
58239;BME280;44037;55.638;37.356;2023-04-01T03:45:00;97739.72;;;2.15;100.00
58239;BME280;44037;55.638;37.356;2023-04-01T03:47:30;97752.53;;;2.17;100.00
58239;BME280;44037;55.638;37.356;2023-04-01T03:49:57;97750.81;;;2.17;100.00
58239;BME280;44037;55.638;37.356;2023-04-01T03:52:24;97755.09;;;2.18;100.00
58239;BME280;44037;55.638;37.356;2023-04-01T03:54:52;97755.97;;;2.20;100.00
58239;BME280;44037;55.638;37.356;2023-04-01T03:57:19;97761.09;;;2.20;100.00
58239;BME280;44037;55.638;37.356;2023-04-01T03:59:46;97768.75;;;2.22;100.00
58239;BME280;44037;55.638;37.356;2023-04-01T04:02:13;97773.88;;;2.22;100.00
58239;BME280;44037;55.638;37.356;2023-04-01T04:04:41;97777.31;;;2.22;100.00
58239;BME280;44037;55.638;37.356;2023-04-01T04:07:08;97775.59;;;2.21;100.00
58239;BME280;44037;55.638;37.356;2023-04-01T04:09:36;97781.59;;;2.25;100.00
58239;BME280;44037;55.638;37.356;2023-04-01T04:12:03;97781.63;;;2.26;100.00
58239;BME280;44037;55.638;37.356;2023-04-01T04:14:31;97778.25;;;2.29;100.00
58239;BME280;44037;55.638;37.356;2023-04-01T04:16:58;97782.56;;;2.33;100.00
58239;BME280;44037;55.638;37.356;2023-04-01T04:19:25;97780.91;;;2.37;100.00
58239;BME280;44037;55.638;37.356;2023-04-01T04:21:53;97779.22;;;2.39;100.00
58239;BME280;44037;55.638;37.356;2023-04-01T04:24:20;97792.06;;;2.43;100.00
58239;BME280;44037;55.638;37.356;2023-04-01T04:26:47;97787.84;;;2.49;100.00
58239;BME280;44037;55.638;37.356;2023-04-01T04:29:15;97794.72;;;2.53;100.00
58239;BME280;44037;55.638;37.356;2023-04-01T04:31:42;97792.22;;;2.57;100.00
58239;BME280;44037;55.638;37.356;2023-04-01T04:34:09;97794.81;;;2.62;100.00
58239;BME280;44037;55.638;37.356;2023-04-01T04:36:36;97795.75;;;2.67;100.00
58239;BME280;44037;55.638;37.356;2023-04-01T04:39:04;97792.38;;;2.73;100.00
58239;BME280;44037;55.638;37.356;2023-04-01T04:41:31;97798.44;;;2.81;100.00
58239;BME280;44037;55.638;37.356;2023-04-01T04:43:58;97787.44;;;2.88;100.00
58239;BME280;44037;55.638;37.356;2023-04-01T04:46:26;97800.34;;;3.01;100.00
58239;BME280;44037;55.638;37.356;2023-04-01T04:48:53;97796.19;;;3.12;100.00
58239;BME280;44037;55.638;37.356;2023-04-01T04:51:20;97793.72;;;3.21;100.00
58239;BME280;44037;55.638;37.356;2023-04-01T04:53:48;97801.47;;;3.31;100.00
58239;BME280;44037;55.638;37.356;2023-04-01T04:56:19;97805.81;;;3.40;100.00
58239;BME280;44037;55.638;37.356;2023-04-01T04:58:47;97801.63;;;3.51;100.00
58239;BME280;44037;55.638;37.356;2023-04-01T05:01:16;97805.13;;;3.61;100.00
58239;BME280;44037;55.638;37.356;2023-04-01T05:03:43;97806.06;;;3.71;100.00
58239;BME280;44037;55.638;37.356;2023-04-01T05:06:12;97808.69;;;3.81;100.00
58239;BME280;44037;55.638;37.356;2023-04-01T05:08:40;97804.50;;;3.91;100.00
58239;BME280;44037;55.638;37.356;2023-04-01T05:11:10;97814.78;;;4.00;100.00
58239;BME280;44037;55.638;37.356;2023-04-01T05:13:40;97817.41;;;4.08;100.00
58239;BME280;44037;55.638;37.356;2023-04-01T05:16:09;97825.13;;;4.16;100.00
58239;BME280;44037;55.638;37.356;2023-04-01T05:18:36;97831.97;;;4.19;100.00
58239;BME280;44037;55.638;37.356;2023-04-01T05:21:04;97831.13;;;4.20;100.00
58239;BME280;44037;55.638;37.356;2023-04-01T05:23:31;97827.72;;;4.21;100.00
58239;BME280;44037;55.638;37.356;2023-04-01T05:25:59;97835.44;;;4.24;100.00
58239;BME280;44037;55.638;37.356;2023-04-01T05:28:29;97838.03;;;4.27;100.00
58239;BME280;44037;55.638;37.356;2023-04-01T05:30:58;97840.59;;;4.27;100.00
58239;BME280;44037;55.638;37.356;2023-04-01T05:33:25;97840.59;;;4.28;100.00
58239;BME280;44037;55.638;37.356;2023-04-01T05:35:53;97837.19;;;4.29;100.00
58239;BME280;44037;55.638;37.356;2023-04-01T05:38:20;97833.78;;;4.37;100.00
58239;BME280;44037;55.638;37.356;2023-04-01T05:40:47;97832.13;;;4.45;100.00
58239;BME280;44037;55.638;37.356;2023-04-01T05:43:14;97839.00;;;4.55;100.00
58239;BME280;44037;55.638;37.356;2023-04-01T05:45:41;97834.78;;;4.65;100.00
58239;BME280;44037;55.638;37.356;2023-04-01T05:48:10;97833.97;;;4.77;100.00
58239;BME280;44037;55.638;37.356;2023-04-01T05:50:39;97834.00;;;4.85;100.00
58239;BME280;44037;55.638;37.356;2023-04-01T05:53:07;97835.72;;;4.86;100.00
58239;BME280;44037;55.638;37.356;2023-04-01T05:55:34;97833.13;;;4.87;100.00
58239;BME280;44037;55.638;37.356;2023-04-01T05:58:01;97839.16;;;4.96;100.00
58239;BME280;44037;55.638;37.356;2023-04-01T06:00:29;97840.06;;;5.12;100.00
58239;BME280;44037;55.638;37.356;2023-04-01T06:02:58;97846.91;;;5.22;100.00
58239;BME280;44037;55.638;37.356;2023-04-01T06:05:28;97847.78;;;5.27;100.00
58239;BME280;44037;55.638;37.356;2023-04-01T06:07:58;97850.34;;;5.33;100.00
58239;BME280;44037;55.638;37.356;2023-04-01T06:10:34;97857.25;;;5.41;100.00
58239;BME280;44037;55.638;37.356;2023-04-01T06:13:07;97858.94;;;5.57;100.00
58239;BME280;44037;55.638;37.356;2023-04-01T06:15:43;97863.25;;;5.83;100.00
58239;BME280;44037;55.638;37.356;2023-04-01T06:18:38;97864.09;;;6.19;100.00
58239;BME280;44037;55.638;37.356;2023-04-01T06:24:11;97857.91;;;6.82;100.00
58239;BME280;44037;55.638;37.356;2023-04-01T06:26:50;97850.03;;;7.10;100.00
58239;BME280;44037;55.638;37.356;2023-04-01T06:29:36;97855.00;;;7.43;100.00
58239;BME280;44037;55.638;37.356;2023-04-01T06:32:26;97848.78;;;7.72;100.00
58239;BME280;44037;55.638;37.356;2023-04-01T06:35:17;97852.88;;;7.96;100.00
58239;BME280;44037;55.638;37.356;2023-04-01T06:41:05;97861.16;;;8.30;100.00
58239;BME280;44037;55.638;37.356;2023-04-01T06:43:45;97867.09;;;8.40;100.00
58239;BME280;44037;55.638;37.356;2023-04-01T06:46:20;97864.41;;;8.50;100.00
58239;BME280;44037;55.638;37.356;2023-04-01T06:49:04;97865.16;;;8.63;100.00
58239;BME280;44037;55.638;37.356;2023-04-01T06:51:39;97871.03;;;8.72;100.00
58239;BME280;44037;55.638;37.356;2023-04-01T06:54:11;97864.16;;;8.74;100.00
58239;BME280;44037;55.638;37.356;2023-04-01T06:56:45;97870.13;;;8.78;100.00
58239;BME280;44037;55.638;37.356;2023-04-01T06:59:17;97869.28;;;8.78;100.00
58239;BME280;44037;55.638;37.356;2023-04-01T07:01:50;97867.53;;;8.80;100.00
58239;BME280;44037;55.638;37.356;2023-04-01T07:04:20;97876.13;;;8.82;100.00
58239;BME280;44037;55.638;37.356;2023-04-01T07:06:53;97872.63;;;8.87;100.00
58239;BME280;44037;55.638;37.356;2023-04-01T07:09:24;97873.38;;;8.96;100.00
58239;BME280;44037;55.638;37.356;2023-04-01T07:11:59;97880.22;;;9.00;100.00
58239;BME280;44037;55.638;37.356;2023-04-01T07:14:31;97874.09;;;9.04;100.00
58239;BME280;44037;55.638;37.356;2023-04-01T07:17:03;97879.22;;;9.09;100.00
58239;BME280;44037;55.638;37.356;2023-04-01T07:19:34;97877.34;;;9.20;100.00
58239;BME280;44037;55.638;37.356;2023-04-01T07:22:05;97884.84;;;9.38;100.00
58239;BME280;44037;55.638;37.356;2023-04-01T07:24:34;97875.22;;;9.50;100.00
58239;BME280;44037;55.638;37.356;2023-04-01T07:27:05;97890.69;;;9.53;100.00
58239;BME280;44037;55.638;37.356;2023-04-01T07:29:36;97884.59;;;9.57;100.00
58239;BME280;44037;55.638;37.356;2023-04-01T07:32:20;97896.59;;;9.63;100.00
58239;BME280;44037;55.638;37.356;2023-04-01T07:35:00;97892.97;;;9.73;100.00
58239;BME280;44037;55.638;37.356;2023-04-01T07:37:39;97888.56;;;9.80;100.00
58239;BME280;44037;55.638;37.356;2023-04-01T07:40:20;97890.19;;;9.86;100.00
58239;BME280;44037;55.638;37.356;2023-04-01T07:43:10;97890.16;;;9.87;100.00
58239;BME280;44037;55.638;37.356;2023-04-01T07:45:44;97891.13;;;9.81;100.00
58239;BME280;44037;55.638;37.356;2023-04-01T07:48:23;97897.16;;;9.82;100.00
58239;BME280;44037;55.638;37.356;2023-04-01T07:50:53;97903.09;;;9.87;100.00
58239;BME280;44037;55.638;37.356;2023-04-01T07:53:27;97898.00;;;9.82;100.00
58239;BME280;44037;55.638;37.356;2023-04-01T07:56:01;97905.72;;;9.84;100.00
58239;BME280;44037;55.638;37.356;2023-04-01T07:58:39;97903.03;;;9.92;100.00
58239;BME280;44037;55.638;37.356;2023-04-01T08:01:15;97904.53;;;10.07;100.00
58239;BME280;44037;55.638;37.356;2023-04-01T08:03:56;97907.66;;;10.24;100.00
58239;BME280;44037;55.638;37.356;2023-04-01T08:06:34;97898.94;;;10.32;100.00
58239;BME280;44037;55.638;37.356;2023-04-01T08:09:09;97901.41;;;10.38;100.00
58239;BME280;44037;55.638;37.356;2023-04-01T08:11:51;97914.34;;;10.39;100.00
58239;BME280;44037;55.638;37.356;2023-04-01T08:14:29;97910.09;;;10.34;100.00
58239;BME280;44037;55.638;37.356;2023-04-01T08:17:03;97907.03;;;10.10;100.00
58239;BME280;44037;55.638;37.356;2023-04-01T08:19:47;97914.50;;;9.74;99.42
58239;BME280;44037;55.638;37.356;2023-04-01T08:22:22;97917.44;;;9.49;97.28
58239;BME280;44037;55.638;37.356;2023-04-01T08:24:54;97914.28;;;9.28;96.36
58239;BME280;44037;55.638;37.356;2023-04-01T08:27:31;97915.94;;;9.34;96.09
58239;BME280;44037;55.638;37.356;2023-04-01T08:30:14;97920.97;;;9.45;96.30
58239;BME280;44037;55.638;37.356;2023-04-01T08:32:44;97916.56;;;9.50;96.08
58239;BME280;44037;55.638;37.356;2023-04-01T08:35:20;97911.44;;;9.47;95.09
58239;BME280;44037;55.638;37.356;2023-04-01T08:37:52;97918.31;;;9.48;94.17
58239;BME280;44037;55.638;37.356;2023-04-01T08:40:52;97921.91;;;9.37;94.43
58239;BME280;44037;55.638;37.356;2023-04-01T08:46:34;97925.63;;;9.16;92.87
58239;BME280;44037;55.638;37.356;2023-04-01T08:49:18;97930.00;;;9.11;91.92
58239;BME280;44037;55.638;37.356;2023-04-01T08:52:05;97929.06;;;9.15;90.88
58239;BME280;44037;55.638;37.356;2023-04-01T08:54:47;97930.78;;;9.16;90.71
58239;BME280;44037;55.638;37.356;2023-04-01T08:57:25;97929.09;;;9.14;90.85
58239;BME280;44037;55.638;37.356;2023-04-01T09:00:11;97935.28;;;9.03;88.76
58239;BME280;44037;55.638;37.356;2023-04-01T09:03:15;97932.00;;;8.87;90.15
58239;BME280;44037;55.638;37.356;2023-04-01T09:06:31;97944.06;;;8.87;90.88
58239;BME280;44037;55.638;37.356;2023-04-01T09:09:32;97933.63;;;8.96;90.23
58239;BME280;44037;55.638;37.356;2023-04-01T09:15:33;97944.53;;;9.20;88.86
58239;BME280;44037;55.638;37.356;2023-04-01T09:21:14;97943.44;;;9.40;88.37
58239;BME280;44037;55.638;37.356;2023-04-01T09:24:07;97945.06;;;9.45;88.29
58239;BME280;44037;55.638;37.356;2023-04-01T09:26:58;97946.91;;;9.37;88.07
58239;BME280;44037;55.638;37.356;2023-04-01T09:29:44;97947.78;;;9.34;87.57
58239;BME280;44037;55.638;37.356;2023-04-01T09:32:33;97946.91;;;9.37;86.83
58239;BME280;44037;55.638;37.356;2023-04-01T09:35:20;97950.44;;;9.30;85.78
58239;BME280;44037;55.638;37.356;2023-04-01T09:37:54;97955.69;;;9.22;85.28
58239;BME280;44037;55.638;37.356;2023-04-01T09:40:33;97961.59;;;9.33;83.45
58239;BME280;44037;55.638;37.356;2023-04-01T09:43:21;97963.91;;;9.55;83.76
58239;BME280;44037;55.638;37.356;2023-04-01T09:46:05;97963.53;;;9.81;82.64
58239;BME280;44037;55.638;37.356;2023-04-01T09:48:51;97960.31;;;10.23;81.77
58239;BME280;44037;55.638;37.356;2023-04-01T09:51:32;97969.84;;;10.73;80.64
58239;BME280;44037;55.638;37.356;2023-04-01T09:54:19;97960.56;;;11.08;81.22
58239;BME280;44037;55.638;37.356;2023-04-01T09:57:09;97966.31;;;11.24;79.83
58239;BME280;44037;55.638;37.356;2023-04-01T09:59:56;97964.41;;;11.32;79.52
58239;BME280;44037;55.638;37.356;2023-04-01T10:03:01;97961.84;;;11.29;74.95
58239;BME280;44037;55.638;37.356;2023-04-01T10:05:54;97965.31;;;10.84;76.08
58239;BME280;44037;55.638;37.356;2023-04-01T10:11:54;97972.38;;;10.24;75.57
58239;BME280;44037;55.638;37.356;2023-04-01T10:20:59;97976.50;;;10.39;75.21
58239;BME280;44037;55.638;37.356;2023-04-01T10:30:05;97971.03;;;9.98;73.92
58239;BME280;44037;55.638;37.356;2023-04-01T10:39:17;97982.44;;;9.87;73.81
58239;BME280;44037;55.638;37.356;2023-04-01T10:42:19;97984.34;;;9.74;73.93
58239;BME280;44037;55.638;37.356;2023-04-01T10:45:32;97981.75;;;9.74;73.63
58239;BME280;44037;55.638;37.356;2023-04-01T10:48:23;97992.38;;;9.52;73.53
58239;BME280;44037;55.638;37.356;2023-04-01T10:51:12;97990.78;;;9.42;73.06
58239;BME280;44037;55.638;37.356;2023-04-01T10:54:29;97986.28;;;9.58;72.88
58239;BME280;44037;55.638;37.356;2023-04-01T10:57:18;97988.28;;;10.01;73.20
58239;BME280;44037;55.638;37.356;2023-04-01T11:00:15;97996.25;;;10.45;73.50
58239;BME280;44037;55.638;37.356;2023-04-01T11:03:11;97995.53;;;10.85;72.53
58239;BME280;44037;55.638;37.356;2023-04-01T11:06:17;97983.63;;;11.22;71.43
58239;BME280;44037;55.638;37.356;2023-04-01T11:09:26;97987.22;;;11.59;71.36
58239;BME280;44037;55.638;37.356;2023-04-01T11:18:25;97985.03;;;12.19;68.43
58239;BME280;44037;55.638;37.356;2023-04-01T11:24:18;97987.47;;;12.59;67.58
58239;BME280;44037;55.638;37.356;2023-04-01T11:26:53;97996.50;;;12.79;65.73
58239;BME280;44037;55.638;37.356;2023-04-01T11:29:45;97993.91;;;12.79;65.48
58239;BME280;44037;55.638;37.356;2023-04-01T11:32:26;97993.13;;;12.75;65.21
58239;BME280;44037;55.638;37.356;2023-04-01T11:37:57;97997.31;;;12.81;64.28
58239;BME280;44037;55.638;37.356;2023-04-01T11:40:35;97999.91;;;12.83;63.48
58239;BME280;44037;55.638;37.356;2023-04-01T11:43:11;97997.88;;;12.94;63.21
58239;BME280;44037;55.638;37.356;2023-04-01T11:45:48;98000.00;;;13.11;62.62
58239;BME280;44037;55.638;37.356;2023-04-01T11:48:34;97987.41;;;13.27;61.33
58239;BME280;44037;55.638;37.356;2023-04-01T11:54:06;97999.31;;;13.36;61.27
58239;BME280;44037;55.638;37.356;2023-04-01T11:56:52;97988.06;;;13.35;61.49
58239;BME280;44037;55.638;37.356;2023-04-01T12:00:02;97998.47;;;13.35;61.63
58239;BME280;44037;55.638;37.356;2023-04-01T12:02:42;97996.72;;;13.36;61.11
58239;BME280;44037;55.638;37.356;2023-04-01T12:05:23;97993.50;;;13.26;61.10
58239;BME280;44037;55.638;37.356;2023-04-01T12:08:15;98001.72;;;13.11;60.17
58239;BME280;44037;55.638;37.356;2023-04-01T12:10:55;98003.94;;;12.93;59.67
58239;BME280;44037;55.638;37.356;2023-04-01T12:13:32;98005.84;;;12.86;60.61
58239;BME280;44037;55.638;37.356;2023-04-01T12:16:15;98005.91;;;12.85;60.99
58239;BME280;44037;55.638;37.356;2023-04-01T12:18:50;98009.34;;;12.85;60.64
58239;BME280;44037;55.638;37.356;2023-04-01T12:21:26;98011.31;;;12.75;59.69
58239;BME280;44037;55.638;37.356;2023-04-01T12:27:35;98017.81;;;12.59;59.91
58239;BME280;44037;55.638;37.356;2023-04-01T12:30:31;98021.06;;;12.67;59.47
58239;BME280;44037;55.638;37.356;2023-04-01T12:33:20;98017.41;;;12.74;59.22
58239;BME280;44037;55.638;37.356;2023-04-01T12:35:58;98019.88;;;12.81;58.09
58239;BME280;44037;55.638;37.356;2023-04-01T12:38:34;98022.50;;;12.79;58.79
58239;BME280;44037;55.638;37.356;2023-04-01T12:41:08;98031.41;;;12.70;57.22
58239;BME280;44037;55.638;37.356;2023-04-01T12:43:58;98026.53;;;12.56;58.42
58239;BME280;44037;55.638;37.356;2023-04-01T12:46:40;98032.78;;;12.49;56.58
58239;BME280;44037;55.638;37.356;2023-04-01T12:49:27;98028.88;;;12.31;57.06
58239;BME280;44037;55.638;37.356;2023-04-01T12:52:07;98020.63;;;12.13;54.20
58239;BME280;44037;55.638;37.356;2023-04-01T12:55:00;98025.31;;;11.96;56.47
58239;BME280;44037;55.638;37.356;2023-04-01T12:57:43;98031.34;;;11.98;56.74
58239;BME280;44037;55.638;37.356;2023-04-01T13:00:27;98032.16;;;12.00;57.01
58239;BME280;44037;55.638;37.356;2023-04-01T13:03:12;98040.91;;;11.94;56.60
58239;BME280;44037;55.638;37.356;2023-04-01T13:06:09;98046.09;;;11.94;57.16
58239;BME280;44037;55.638;37.356;2023-04-01T13:08:48;98047.94;;;11.89;56.82
58239;BME280;44037;55.638;37.356;2023-04-01T13:11:24;98044.50;;;11.89;57.00
58239;BME280;44037;55.638;37.356;2023-04-01T13:14:16;98050.56;;;11.88;57.03
58239;BME280;44037;55.638;37.356;2023-04-01T13:16:53;98057.47;;;11.89;56.50
58239;BME280;44037;55.638;37.356;2023-04-01T13:19:30;98052.25;;;11.90;57.29
58239;BME280;44037;55.638;37.356;2023-04-01T13:22:04;98054.91;;;11.87;57.23
58239;BME280;44037;55.638;37.356;2023-04-01T13:24:43;98052.41;;;11.82;57.16
58239;BME280;44037;55.638;37.356;2023-04-01T13:27:17;98056.00;;;11.75;57.31
58239;BME280;44037;55.638;37.356;2023-04-01T13:30:02;98055.44;;;11.62;56.33
58239;BME280;44037;55.638;37.356;2023-04-01T13:32:38;98060.81;;;11.51;56.08
58239;BME280;44037;55.638;37.356;2023-04-01T13:35:17;98062.97;;;11.31;55.76
58239;BME280;44037;55.638;37.356;2023-04-01T13:40:58;98067.31;;;10.80;57.34
58239;BME280;44037;55.638;37.356;2023-04-01T13:43:32;98077.25;;;10.53;57.73
58239;BME280;44037;55.638;37.356;2023-04-01T13:46:11;98080.94;;;10.34;58.94
58239;BME280;44037;55.638;37.356;2023-04-01T13:49:10;98093.28;;;10.16;59.35
58239;BME280;44037;55.638;37.356;2023-04-01T13:52:02;98095.19;;;10.02;59.75
58239;BME280;44037;55.638;37.356;2023-04-01T13:57:33;98096.31;;;9.80;61.55
58239;BME280;44037;55.638;37.356;2023-04-01T14:00:11;98098.16;;;9.72;61.63
58239;BME280;44037;55.638;37.356;2023-04-01T14:05:59;98102.78;;;9.45;62.36
58239;BME280;44037;55.638;37.356;2023-04-01T14:11:32;98102.97;;;9.25;63.53
58239;BME280;44037;55.638;37.356;2023-04-01T14:14:06;98102.19;;;9.17;64.40
58239;BME280;44037;55.638;37.356;2023-04-01T14:20:06;98108.25;;;9.13;65.56
58239;BME280;44037;55.638;37.356;2023-04-01T14:22:52;98118.63;;;9.10;66.33
58239;BME280;44037;55.638;37.356;2023-04-01T14:25:43;98118.66;;;9.06;66.84
58239;BME280;44037;55.638;37.356;2023-04-01T14:28:20;98116.09;;;9.03;67.17
58239;BME280;44037;55.638;37.356;2023-04-01T14:33:46;98120.44;;;8.98;67.78
58239;BME280;44037;55.638;37.356;2023-04-01T14:39:22;98127.41;;;8.90;68.41
58239;BME280;44037;55.638;37.356;2023-04-01T14:42:03;98133.44;;;8.89;69.10
58239;BME280;44037;55.638;37.356;2023-04-01T14:45:02;98130.88;;;8.86;69.56
58239;BME280;44037;55.638;37.356;2023-04-01T14:47:47;98133.47;;;8.83;69.61
58239;BME280;44037;55.638;37.356;2023-04-01T14:50:18;98138.69;;;8.80;70.29
58239;BME280;44037;55.638;37.356;2023-04-01T14:52:55;98143.00;;;8.78;70.46
58239;BME280;44037;55.638;37.356;2023-04-01T14:55:43;98143.03;;;8.74;70.68
58239;BME280;44037;55.638;37.356;2023-04-01T14:58:13;98143.91;;;8.70;71.55